Time;durP1;ratioP1;P1;durP2;ratioP2;P2;SDS_P1;SDS_P2;PMS_P1;PMS_P2;Temp;Humidity;BMP_temperature;BMP_pressure;BME280_temperature;BME280_humidity;BME280_pressure;Samples;Min_cycle;Max_cycle;Signal;HPM_P1;HPM_P2
2023/06/22 00:01:15;;;;;;;;;4.00;3.50;;;;;25.05;45.69;101177.50;5021351;28;45320;-65
2023/06/22 00:03:40;;;;;;;;;4.25;4.25;;;;;25.02;45.52;101178.59;5020954;28;47060;-65
2023/06/22 00:06:05;;;;;;;;;4.00;4.00;;;;;25.03;45.70;101182.13;5021248;28;45208;-65
2023/06/22 00:08:30;;;;;;;;;3.25;3.25;;;;;25.02;45.29;101185.75;5021511;28;45147;-66
2023/06/22 00:10:56;;;;;;;;;6.25;3.00;;;;;24.99;45.51;101170.72;5021194;28;45221;-65
2023/06/22 00:13:21;;;;;;;;;4.75;4.75;;;;;24.96;45.33;101166.41;5021343;28;46229;-65
2023/06/22 00:15:47;;;;;;;;;4.50;4.00;;;;;24.96;45.15;101163.72;5020945;28;45230;-65
2023/06/22 00:18:13;;;;;;;;;3.25;3.25;;;;;24.95;45.68;101159.31;5021274;28;45318;-65
2023/06/22 00:20:38;;;;;;;;;5.25;4.00;;;;;24.91;45.26;101155.13;5021252;28;45416;-65
2023/06/22 00:23:08;;;;;;;;;5.00;5.00;;;;;24.90;45.77;101161.44;5020860;28;46239;-65
2023/06/22 00:25:38;;;;;;;;;4.25;4.25;;;;;24.90;45.30;101158.75;5020880;28;45544;-65
2023/06/22 00:28:04;;;;;;;;;2.00;2.00;;;;;24.87;45.35;101145.53;5021069;28;45463;-65
2023/06/22 00:30:31;;;;;;;;;3.75;3.25;;;;;24.84;45.66;101140.38;5036330;28;45641;-65
2023/06/22 00:32:56;;;;;;;;;3.00;3.00;;;;;24.85;45.52;101147.47;5020841;28;45350;-65
2023/06/22 00:35:22;;;;;;;;;3.25;3.25;;;;;24.80;45.51;101130.81;5020710;28;45383;-65
2023/06/22 00:37:47;;;;;;;;;4.00;3.00;;;;;24.79;45.45;101129.06;5036494;28;45341;-65
2023/06/22 00:40:13;;;;;;;;;3.50;3.50;;;;;24.76;45.37;101127.47;5020722;28;45434;-65
2023/06/22 00:42:41;;;;;;;;;4.00;4.00;;;;;24.75;46.02;101123.03;5019538;28;46259;-65
2023/06/22 00:45:07;;;;;;;;;4.50;4.50;;;;;24.73;45.81;101127.69;5019581;28;45383;-65
2023/06/22 00:47:34;;;;;;;;;5.25;4.25;;;;;24.70;45.95;101103.69;5019434;28;45279;-65
2023/06/22 00:50:00;;;;;;;;;3.50;3.00;;;;;24.67;45.63;101112.81;5035832;28;45510;-65
2023/06/22 00:52:29;;;;;;;;;4.50;4.00;;;;;24.65;45.97;101117.47;5020390;28;46102;-65
2023/06/22 00:55:01;;;;;;;;;3.50;3.00;;;;;24.64;45.61;101123.78;5020480;28;45221;-65
2023/06/22 00:57:27;;;;;;;;;3.25;3.25;;;;;24.61;45.68;101118.56;5020544;28;45329;-65
2023/06/22 00:59:53;;;;;;;;;6.75;4.00;;;;;24.59;45.99;101120.53;5020466;28;45587;-65
2023/06/22 01:02:19;;;;;;;;;3.75;3.75;;;;;24.55;45.93;101116.31;5019477;28;46372;-65
2023/06/22 01:04:44;;;;;;;;;3.75;3.75;;;;;24.56;45.69;101115.34;5035473;28;45341;-65
2023/06/22 01:07:34;;;;;;;;;8.00;7.25;;;;;24.53;46.03;101115.56;5020500;28;45297;-65
2023/06/22 01:10:08;;;;;;;;;4.50;4.50;;;;;24.50;45.66;101115.75;5020589;28;46136;-65
2023/06/22 01:12:47;;;;;;;;;4.00;4.00;;;;;24.44;46.05;101106.31;5018900;28;48274;-65
2023/06/22 01:15:23;;;;;;;;;5.25;4.00;;;;;24.41;45.98;101103.81;5035381;28;46262;-65
2023/06/22 01:17:52;;;;;;;;;4.50;3.25;;;;;24.37;46.13;101093.38;5035981;28;45452;-65
2023/06/22 01:20:17;;;;;;;;;4.25;4.25;;;;;24.40;46.32;101090.47;5019701;28;45538;-65
2023/06/22 01:23:02;;;;;;;;;4.75;4.25;;;;;24.36;45.86;101091.66;5020290;28;46104;-65
2023/06/22 01:25:36;;;;;;;;;5.75;5.00;;;;;24.37;45.86;101088.03;5019989;28;45303;-65
2023/06/22 01:28:15;;;;;;;;;4.00;3.50;;;;;24.34;46.11;101083.72;5020225;28;45167;-65
2023/06/22 01:30:41;;;;;;;;;2.25;2.25;;;;;24.32;46.24;101089.16;5020235;28;45335;-65
2023/06/22 01:33:13;;;;;;;;;5.00;5.00;;;;;24.31;46.08;101090.16;5035146;28;46198;-65
2023/06/22 01:35:39;;;;;;;;;4.00;3.75;;;;;24.28;46.47;101086.81;5020162;28;45257;-65
2023/06/22 01:38:06;;;;;;;;;3.00;3.00;;;;;24.29;46.08;101094.75;5020007;28;45281;-65
2023/06/22 01:40:33;;;;;;;;;7.00;6.00;;;;;24.26;46.12;101092.25;5019920;28;45324;-65
2023/06/22 01:43:01;;;;;;;;;2.00;1.00;;;;;24.23;46.30;101070.16;5019756;28;46335;-65
2023/06/22 01:45:27;;;;;;;;;5.00;5.00;;;;;24.24;46.31;101079.91;5020011;28;45545;-65
2023/06/22 01:47:54;;;;;;;;;6.50;5.00;;;;;24.20;46.48;101057.78;5018538;28;45519;-65
2023/06/22 01:50:21;;;;;;;;;5.00;5.00;;;;;24.21;46.26;101069.38;5019678;28;45395;-65
2023/06/22 01:52:46;;;;;;;;;3.75;3.00;;;;;24.20;46.49;101073.03;5019551;28;46139;-65
2023/06/22 01:55:11;;;;;;;;;6.50;5.00;;;;;24.17;46.48;101057.97;5019647;28;45372;-65
2023/06/22 01:57:38;;;;;;;;;6.25;4.75;;;;;24.15;46.16;101052.72;5019763;28;45331;-65
2023/06/22 02:00:04;;;;;;;;;3.50;3.00;;;;;24.16;46.29;101057.13;5019864;28;45468;-65
2023/06/22 02:02:47;;;;;;;;;5.00;4.00;;;;;24.14;46.41;101045.63;5018253;28;47762;-65
2023/06/22 02:05:17;;;;;;;;;4.25;3.00;;;;;24.14;46.44;101047.47;5019422;28;45442;-65
2023/06/22 02:07:55;;;;;;;;;4.00;4.00;;;;;24.12;46.24;101049.38;5018230;28;45277;-65
2023/06/22 02:10:22;;;;;;;;;6.00;5.00;;;;;24.11;46.61;101055.69;5018052;28;45617;-65
2023/06/22 02:12:50;;;;;;;;;7.00;7.00;;;;;24.10;46.63;101051.28;5019622;28;45514;-65
2023/06/22 02:15:15;;;;;;;;;4.00;3.25;;;;;24.08;46.54;101051.41;5022224;28;45138;-65
2023/06/22 02:17:44;;;;;;;;;6.00;4.25;;;;;24.04;46.69;101043.66;5038180;28;45384;-65
2023/06/22 02:20:13;;;;;;;;;4.50;4.50;;;;;24.08;46.75;101055.91;5022705;28;45387;-65
2023/06/22 02:22:38;;;;;;;;;3.50;3.50;;;;;24.06;46.94;101049.78;5022868;28;45748;-65
2023/06/22 02:25:04;;;;;;;;;3.00;3.00;;;;;24.05;46.50;101050.75;5022634;28;45423;-65
2023/06/22 02:27:29;;;;;;;;;8.75;6.00;;;;;24.00;46.58;101049.22;5023180;28;45241;-65
2023/06/22 02:29:54;;;;;;;;;5.75;4.00;;;;;24.01;46.66;101050.97;5022862;28;45257;-65
2023/06/22 02:32:20;;;;;;;;;5.00;5.00;;;;;23.98;46.65;101048.47;5022878;28;45993;-65
2023/06/22 02:34:47;;;;;;;;;5.25;5.25;;;;;23.99;46.76;101049.34;5022477;28;45376;-65
2023/06/22 02:37:14;;;;;;;;;4.50;4.50;;;;;23.97;46.78;101043.19;5038364;28;45277;-65
2023/06/22 02:39:40;;;;;;;;;4.50;4.50;;;;;23.97;46.91;101043.19;5022395;28;45493;-65
2023/06/22 02:42:06;;;;;;;;;4.25;4.25;;;;;23.93;47.03;101037.16;5022514;28;46170;-65
2023/06/22 02:44:31;;;;;;;;;6.25;5.25;;;;;23.92;46.98;101046.19;5037896;28;45337;-65
2023/06/22 02:46:57;;;;;;;;;3.75;3.75;;;;;23.92;46.98;101050.69;5037719;28;45619;-65
2023/06/22 02:49:23;;;;;;;;;4.00;3.00;;;;;23.91;46.77;101060.59;5022268;28;45518;-65
2023/06/22 02:51:48;;;;;;;;;8.25;5.00;;;;;23.90;46.85;101057.94;5022530;28;47610;-65
2023/06/22 02:54:14;;;;;;;;;5.50;4.00;;;;;23.89;46.99;101050.88;5022495;28;45255;-65
2023/06/22 02:56:40;;;;;;;;;4.75;4.75;;;;;23.85;46.85;101052.91;5022638;28;45452;-65
2023/06/22 02:59:06;;;;;;;;;7.00;5.50;;;;;23.84;47.05;101043.13;5022356;28;45340;-65
2023/06/22 03:01:37;;;;;;;;;5.50;5.50;;;;;23.81;46.95;101044.19;5022289;28;46092;-65
2023/06/22 03:04:03;;;;;;;;;5.50;5.25;;;;;23.82;47.18;101042.34;5022071;28;45443;-65
2023/06/22 03:06:28;;;;;;;;;4.25;4.00;;;;;23.78;47.05;101028.28;5037736;28;45252;-65
2023/06/22 03:09:03;;;;;;;;;5.50;5.50;;;;;23.78;47.00;101024.75;5022393;28;45240;-65
2023/06/22 03:11:32;;;;;;;;;3.75;3.75;;;;;23.76;46.87;101019.47;5022148;28;47114;-65
2023/06/22 03:13:59;;;;;;;;;4.00;4.00;;;;;23.75;47.21;101015.06;5020905;28;45303;-65
2023/06/22 03:16:24;;;;;;;;;5.00;4.75;;;;;23.72;46.87;101001.84;5022042;28;45475;-65
2023/06/22 03:18:49;;;;;;;;;4.00;4.00;;;;;23.72;46.82;101006.34;5021771;28;45386;-65
2023/06/22 03:21:16;;;;;;;;;6.00;6.00;;;;;23.72;47.12;101001.00;5022115;28;45284;-65
2023/06/22 03:23:42;;;;;;;;;4.00;4.00;;;;;23.70;47.38;100995.75;5021956;28;45313;-65
2023/06/22 03:26:08;;;;;;;;;5.50;5.25;;;;;23.69;46.86;101000.22;5019995;28;45346;-65
2023/06/22 03:28:34;;;;;;;;;5.75;5.75;;;;;23.68;47.08;100994.97;5021979;28;45456;-65
2023/06/22 03:30:59;;;;;;;;;6.00;5.00;;;;;23.67;47.08;101003.97;5021982;28;45216;-65
2023/06/22 03:33:24;;;;;;;;;9.00;9.00;;;;;23.66;47.04;100994.19;5021566;28;45238;-65
2023/06/22 03:35:50;;;;;;;;;4.25;4.25;;;;;23.64;47.07;100990.78;5022319;28;45457;-64
2023/06/22 03:38:17;;;;;;;;;7.50;6.75;;;;;23.63;47.38;100991.72;5021784;28;45230;-64
2023/06/22 03:40:42;;;;;;;;;10.00;7.50;;;;;23.61;47.23;100985.59;5021661;28;45264;-64
2023/06/22 03:43:07;;;;;;;;;5.25;4.25;;;;;23.59;47.43;100980.34;5021656;28;45231;-64
2023/06/22 03:45:33;;;;;;;;;7.50;4.75;;;;;23.58;47.29;100978.59;5021874;28;45227;-64
2023/06/22 03:47:58;;;;;;;;;5.00;3.00;;;;;23.57;46.92;100976.03;5021746;28;45412;-65
2023/06/22 03:50:23;;;;;;;;;5.00;4.75;;;;;23.55;47.29;100973.47;5021531;28;46660;-65
2023/06/22 03:52:49;;;;;;;;;4.00;4.00;;;;;23.55;47.24;100981.50;5021548;28;45346;-65
2023/06/22 03:55:14;;;;;;;;;5.50;5.50;;;;;23.54;47.43;100980.63;5036889;28;45423;-65
2023/06/22 03:57:39;;;;;;;;;5.00;5.00;;;;;23.54;47.14;100982.47;5021356;28;45274;-65
2023/06/22 04:00:05;;;;;;;;;5.75;5.00;;;;;23.52;47.54;100987.06;5021409;28;45387;-65
2023/06/22 04:02:31;;;;;;;;;6.25;5.00;;;;;23.51;47.33;100998.75;5035694;28;45420;-65
2023/06/22 04:04:56;;;;;;;;;8.00;6.75;;;;;23.49;47.32;100993.47;5021267;28;45303;-65
2023/06/22 04:07:22;;;;;;;;;5.75;5.75;;;;;23.50;47.41;100997.88;5021375;28;45304;-65
2023/06/22 04:09:47;;;;;;;;;7.50;7.00;;;;;23.52;47.62;101003.16;5021440;28;45303;-65
2023/06/22 04:12:13;;;;;;;;;5.75;5.75;;;;;23.50;47.68;101003.25;5021181;28;45397;-65
2023/06/22 04:14:38;;;;;;;;;6.50;6.50;;;;;23.49;47.60;101004.19;5020277;28;45317;-65
2023/06/22 04:17:04;;;;;;;;;8.75;7.75;;;;;23.50;47.61;100994.34;5021088;28;45453;-65
2023/06/22 04:19:29;;;;;;;;;9.00;6.75;;;;;23.50;47.77;101002.41;5020876;28;46230;-65
2023/06/22 04:21:55;;;;;;;;;8.00;8.00;;;;;23.50;47.46;101008.63;5020969;28;45318;-65
2023/06/22 04:24:20;;;;;;;;;13.50;13.50;;;;;23.49;47.86;101014.09;5021548;28;45490;-65
2023/06/22 04:26:46;;;;;;;;;7.25;7.25;;;;;23.49;47.94;101022.13;5020792;28;45162;-65
2023/06/22 04:29:12;;;;;;;;;13.25;10.00;;;;;23.49;48.01;101027.50;5021139;28;46074;-65
2023/06/22 04:31:37;;;;;;;;;5.75;5.75;;;;;23.47;48.08;101026.72;5020836;28;45330;-65
2023/06/22 04:34:07;;;;;;;;;7.25;6.75;;;;;23.48;47.99;101025.75;5021251;28;45251;-65
2023/06/22 04:36:38;;;;;;;;;4.00;4.00;;;;;23.48;48.18;101025.75;5020614;28;45637;-65
2023/06/22 04:39:09;;;;;;;;;7.50;7.50;;;;;23.45;48.32;101017.94;5020043;28;46050;-65
2023/06/22 04:41:41;;;;;;;;;7.00;7.00;;;;;23.47;48.34;101018.66;5035899;28;45270;-65
2023/06/22 04:44:07;;;;;;;;;11.50;10.75;;;;;23.45;48.49;101017.94;5020913;28;45453;-65
2023/06/22 04:46:35;;;;;;;;;6.75;5.25;;;;;23.43;48.51;101006.44;5020555;28;45550;-65
2023/06/22 04:49:00;;;;;;;;;6.00;6.00;;;;;23.43;48.42;101003.75;5020231;28;45480;-65
2023/06/22 04:51:29;;;;;;;;;5.75;5.75;;;;;23.41;48.51;101000.28;5020568;28;45237;-65
2023/06/22 04:54:00;;;;;;;;;7.50;6.75;;;;;23.39;48.71;101002.22;5036179;28;45318;-65
2023/06/22 04:56:27;;;;;;;;;11.00;10.00;;;;;23.37;48.47;101008.56;5020389;28;46061;-65
2023/06/22 04:58:55;;;;;;;;;8.75;7.75;;;;;23.38;48.94;101017.44;5020520;28;45325;-65
2023/06/22 05:01:22;;;;;;;;;9.75;9.50;;;;;23.35;48.98;101020.34;5020489;28;45440;-65
2023/06/22 05:03:48;;;;;;;;;4.50;4.50;;;;;23.33;48.88;101015.06;5020205;28;45506;-65
2023/06/22 05:06:14;;;;;;;;;10.00;9.50;;;;;23.34;48.84;101030.19;5020311;28;45483;-65
2023/06/22 05:08:40;;;;;;;;;12.00;8.50;;;;;23.34;48.92;101024.81;5020406;28;46076;-65
2023/06/22 05:11:05;;;;;;;;;9.25;9.00;;;;;23.32;48.93;101021.38;5020323;28;45415;-65
2023/06/22 05:13:31;;;;;;;;;5.00;5.00;;;;;23.32;48.98;101015.16;5020475;28;45796;-65
2023/06/22 05:16:00;;;;;;;;;9.50;8.00;;;;;23.28;48.82;101005.59;5020436;28;45661;-65
2023/06/22 05:18:30;;;;;;;;;9.25;9.00;;;;;23.30;49.28;101011.72;5018636;28;46233;-65
2023/06/22 05:20:55;;;;;;;;;5.75;5.25;;;;;23.19;49.40;100986.47;5020035;28;45471;-65
2023/06/22 05:23:21;;;;;;;;;7.50;7.50;;;;;23.21;49.46;100991.72;5020228;28;45328;-65
2023/06/22 05:25:46;;;;;;;;;10.25;9.00;;;;;23.24;49.25;100994.19;5018836;28;45584;-65
2023/06/22 05:28:12;;;;;;;;;8.00;8.00;;;;;23.23;49.47;100991.63;5020064;28;45158;-65
2023/06/22 05:30:37;;;;;;;;;8.00;6.75;;;;;23.22;49.50;100990.78;5018854;28;45264;-65
2023/06/22 05:33:03;;;;;;;;;11.75;10.00;;;;;23.20;49.57;100990.84;5019996;28;45375;-65
2023/06/22 05:35:29;;;;;;;;;9.50;8.00;;;;;23.15;49.73;100974.19;5020271;28;45408;-65
2023/06/22 05:37:55;;;;;;;;;10.75;10.00;;;;;23.17;49.76;100980.34;5019444;28;45388;-65
2023/06/22 05:40:21;;;;;;;;;6.75;6.25;;;;;23.18;49.88;100991.91;5019825;28;45464;-65
2023/06/22 05:42:46;;;;;;;;;12.50;10.75;;;;;23.14;49.85;100985.84;5019980;28;45379;-65
2023/06/22 05:45:12;;;;;;;;;11.00;9.75;;;;;23.13;49.88;100984.13;5019968;28;45415;-65
2023/06/22 05:47:37;;;;;;;;;9.00;9.00;;;;;23.12;49.84;100982.41;5019714;28;46335;-65
2023/06/22 05:50:06;;;;;;;;;10.25;9.75;;;;;23.07;49.96;100983.66;5025148;28;45265;-66
2023/06/22 05:52:32;;;;;;;;;14.25;10.25;;;;;23.07;49.80;100987.22;5026516;28;45222;-65
2023/06/22 05:54:57;;;;;;;;;13.50;12.75;;;;;23.03;50.15;100983.84;5026315;28;45154;-65
2023/06/22 05:57:22;;;;;;;;;9.75;9.75;;;;;23.02;50.25;100979.44;5026213;28;46330;-65
2023/06/22 05:59:48;;;;;;;;;12.25;9.00;;;;;23.00;49.97;100978.66;5026388;28;45250;-65
2023/06/22 06:02:13;;;;;;;;;13.00;9.00;;;;;22.99;50.24;100982.34;5026548;28;45392;-65
2023/06/22 06:04:38;;;;;;;;;11.75;9.75;;;;;22.93;50.44;100969.31;5024731;28;45940;-65
2023/06/22 06:07:04;;;;;;;;;23.75;21.25;;;;;22.93;50.50;100976.47;5025938;28;45353;-65
2023/06/22 06:09:29;;;;;;;;;18.50;16.25;;;;;22.89;50.48;100974.00;5024889;28;45459;-65
2023/06/22 06:11:54;;;;;;;;;12.75;11.75;;;;;22.87;50.13;100983.09;5024711;28;45265;-65
2023/06/22 06:14:20;;;;;;;;;7.50;7.00;;;;;22.84;50.63;100986.84;5026186;28;45311;-65
2023/06/22 06:16:45;;;;;;;;;12.50;11.50;;;;;22.81;50.48;100987.00;5025865;28;45302;-65
2023/06/22 06:19:11;;;;;;;;;10.25;9.50;;;;;22.80;50.60;100987.09;5024737;28;45363;-65
2023/06/22 06:21:36;;;;;;;;;9.25;9.25;;;;;22.78;50.70;100986.31;5026207;28;45455;-65
2023/06/22 06:24:01;;;;;;;;;14.25;12.25;;;;;22.75;50.94;100995.41;5026102;28;45303;-65
2023/06/22 06:26:32;;;;;;;;;12.25;12.25;;;;;22.75;50.83;100989.22;5025799;28;47296;-65
2023/06/22 06:29:02;;;;;;;;;17.00;15.25;;;;;22.71;51.00;100981.34;5026202;28;45374;-65
2023/06/22 06:31:28;;;;;;;;;11.00;10.25;;;;;22.69;51.42;100993.13;5025953;28;45360;-64
2023/06/22 06:33:54;;;;;;;;;13.25;13.25;;;;;22.65;51.20;100989.75;5025710;28;45392;-64
2023/06/22 06:36:19;;;;;;;;;12.25;12.00;;;;;22.67;50.93;100992.38;5025689;28;46335;-65
2023/06/22 06:38:46;;;;;;;;;18.00;15.00;;;;;22.65;51.18;100991.59;5026052;28;45317;-64
2023/06/22 06:41:13;;;;;;;;;13.25;11.50;;;;;22.61;51.29;100977.53;5041132;28;45361;-64
2023/06/22 06:43:38;;;;;;;;;14.50;13.75;;;;;22.60;50.90;100974.94;5025897;28;45491;-64
2023/06/22 06:46:04;;;;;;;;;18.75;14.25;;;;;22.59;51.53;100966.06;5025695;28;45954;-64
2023/06/22 06:48:29;;;;;;;;;15.50;13.50;;;;;22.54;51.49;100963.66;5024325;28;45424;-63
2023/06/22 06:50:54;;;;;;;;;17.25;14.00;;;;;22.53;50.99;100963.75;5024536;28;45262;-64
2023/06/22 06:53:19;;;;;;;;;16.25;13.25;;;;;22.51;51.38;100965.66;5025902;28;46108;-64
2023/06/22 06:55:45;;;;;;;;;13.50;13.25;;;;;22.48;51.28;100955.16;5025367;28;46074;-64
2023/06/22 06:58:12;;;;;;;;;17.00;12.25;;;;;22.46;51.56;100954.38;5026051;28;45308;-64
2023/06/22 07:00:38;;;;;;;;;15.00;14.00;;;;;22.43;51.68;100952.75;5021809;28;45331;-64
2023/06/22 07:03:04;;;;;;;;;18.50;16.75;;;;;22.39;51.74;100953.88;5037484;28;45643;-64
2023/06/22 07:05:29;;;;;;;;;17.75;14.75;;;;;22.38;51.79;100958.34;5020752;28;47279;-64
2023/06/22 07:07:54;;;;;;;;;22.50;20.00;;;;;22.36;51.79;100949.56;5022444;28;45384;-64
2023/06/22 07:10:20;;;;;;;;;19.25;17.25;;;;;22.35;51.56;100960.31;5022154;28;45148;-63
2023/06/22 07:12:45;;;;;;;;;21.50;19.50;;;;;22.31;51.82;100948.09;5015301;28;45298;-64
2023/06/22 07:15:12;;;;;;;;;21.00;18.50;;;;;22.29;51.64;100945.50;5014530;28;47036;-64
2023/06/22 07:17:40;;;;;;;;;22.50;18.75;;;;;22.27;52.04;100943.88;5021954;28;45263;-64
2023/06/22 07:20:09;;;;;;;;;19.50;19.00;;;;;22.26;52.16;100943.00;5021736;28;45324;-64
2023/06/22 07:22:35;;;;;;;;;21.25;19.75;;;;;22.20;52.08;100930.88;5017353;28;45753;-64
2023/06/22 07:25:01;;;;;;;;;19.25;17.75;;;;;22.21;51.99;100931.72;5031194;28;46927;-64
2023/06/22 07:27:26;;;;;;;;;20.00;19.00;;;;;22.17;52.52;100936.38;5022020;28;45313;-64
2023/06/22 07:29:51;;;;;;;;;23.75;22.00;;;;;22.14;52.44;100927.69;5021950;28;45280;-64
2023/06/22 07:32:17;;;;;;;;;22.75;21.75;;;;;22.15;52.56;100937.44;5022020;28;45482;-63
2023/06/22 07:34:43;;;;;;;;;25.75;24.25;;;;;22.14;52.31;100938.38;5021506;28;46281;-63
2023/06/22 07:37:08;;;;;;;;;24.75;19.25;;;;;22.10;52.54;100934.19;5022084;28;45427;-63
2023/06/22 07:39:34;;;;;;;;;26.00;21.50;;;;;22.11;52.68;100935.91;5021648;28;45528;-64
2023/06/22 07:41:59;;;;;;;;;23.00;20.25;;;;;22.10;52.31;100935.06;5021689;28;45344;-63
2023/06/22 07:44:25;;;;;;;;;23.50;19.50;;;;;22.08;52.64;100931.59;5021555;28;45377;-63
2023/06/22 07:46:50;;;;;;;;;27.00;22.75;;;;;22.10;52.56;100940.41;5021679;28;45345;-64
2023/06/22 07:49:17;;;;;;;;;28.50;24.50;;;;;22.10;52.93;100939.53;5021709;28;45450;-64
2023/06/22 07:51:43;;;;;;;;;25.00;22.50;;;;;22.09;52.63;100944.03;5021730;28;45510;-63
2023/06/22 07:54:10;;;;;;;;;26.75;25.00;;;;;22.06;52.86;100939.72;5021569;28;45475;-64
2023/06/22 07:56:37;;;;;;;;;27.00;24.50;;;;;22.05;52.98;100935.31;5021457;28;45179;-63
2023/06/22 07:59:03;;;;;;;;;27.75;24.00;;;;;22.04;52.83;100936.28;5036727;28;45277;-63
2023/06/22 08:01:29;;;;;;;;;22.50;21.25;;;;;22.04;53.27;100938.09;5021353;28;45443;-63
2023/06/22 08:03:54;;;;;;;;;27.25;23.75;;;;;22.02;52.86;100932.81;5019719;28;45461;-63
2023/06/22 08:06:19;;;;;;;;;27.50;23.75;;;;;22.00;52.72;100942.75;5021245;28;45317;-63
2023/06/22 08:08:47;;;;;;;;;22.50;21.75;;;;;21.99;52.96;100949.06;5021442;28;45305;-63
2023/06/22 08:11:13;;;;;;;;;29.00;25.75;;;;;22.00;53.01;100950.78;5020133;28;45484;-63
2023/06/22 08:13:38;;;;;;;;;27.50;24.75;;;;;21.99;53.01;100951.75;5019707;28;45463;-63
2023/06/22 08:16:04;;;;;;;;;24.50;23.25;;;;;21.99;53.33;100957.09;5021122;28;45256;-63
2023/06/22 08:18:29;;;;;;;;;25.50;24.75;;;;;21.98;53.42;100950.00;5019724;28;45442;-63
2023/06/22 08:20:55;;;;;;;;;27.50;24.50;;;;;21.98;53.51;100949.16;5021158;28;45238;-63
2023/06/22 08:23:20;;;;;;;;;34.50;27.75;;;;;21.96;53.48;100946.59;5019685;28;48124;-63
2023/06/22 08:25:45;;;;;;;;;30.75;28.00;;;;;21.96;53.19;100946.59;5021097;28;45518;-63
2023/06/22 08:28:12;;;;;;;;;29.25;23.25;;;;;21.95;53.84;100952.88;5021036;28;46049;-63
2023/06/22 08:30:38;;;;;;;;;28.50;27.00;;;;;21.94;53.53;100958.28;5021228;28;45237;-63
2023/06/22 08:33:03;;;;;;;;;31.00;26.25;;;;;21.94;53.48;100955.63;5020661;28;45201;-63
2023/06/22 08:35:29;;;;;;;;;31.75;30.25;;;;;21.91;53.48;100954.88;5021239;28;45462;-63
2023/06/22 08:37:56;;;;;;;;;30.00;25.00;;;;;21.90;53.29;100961.16;5020907;28;45265;-63
2023/06/22 08:40:22;;;;;;;;;31.00;28.25;;;;;21.92;53.84;100963.75;5019704;28;45519;-63
2023/06/22 08:42:48;;;;;;;;;32.25;29.25;;;;;21.91;53.83;100960.22;5020506;28;45952;-63
2023/06/22 08:45:14;;;;;;;;;31.25;28.25;;;;;21.89;53.69;100959.44;5020846;28;45834;-64
2023/06/22 08:47:44;;;;;;;;;31.75;30.00;;;;;21.89;54.01;100959.44;5020859;28;45269;-63
2023/06/22 08:50:10;;;;;;;;;32.25;29.75;;;;;21.89;53.67;100953.25;5020470;28;45561;-63
2023/06/22 08:52:36;;;;;;;;;25.75;23.25;;;;;21.90;54.05;100966.50;5035862;28;48159;-63
2023/06/22 08:55:01;;;;;;;;;28.75;27.25;;;;;21.89;53.93;100962.09;5020400;28;45323;-63
2023/06/22 08:57:27;;;;;;;;;29.50;27.00;;;;;21.90;53.95;100954.97;5020451;28;45390;-63
2023/06/22 08:59:53;;;;;;;;;34.25;31.25;;;;;21.91;53.80;100965.56;5020577;28;45392;-63
2023/06/22 09:02:19;;;;;;;;;31.75;30.25;;;;;21.92;53.83;100966.41;5033641;28;46435;-64
2023/06/22 09:04:46;;;;;;;;;26.75;26.75;;;;;21.93;54.32;100965.47;5020315;28;45283;-63
2023/06/22 09:07:11;;;;;;;;;29.75;28.25;;;;;21.94;53.99;100974.34;5020381;28;45336;-63
2023/06/22 09:09:37;;;;;;;;;29.25;28.00;;;;;21.95;54.42;100963.56;5020343;28;45469;-64
2023/06/22 09:12:02;;;;;;;;;28.75;27.75;;;;;21.97;54.05;100969.69;5020046;28;45411;-63
2023/06/22 09:14:27;;;;;;;;;33.00;29.50;;;;;21.96;54.10;100965.31;5020173;28;45189;-63
2023/06/22 09:16:53;;;;;;;;;31.00;27.25;;;;;21.99;54.16;100964.25;5020180;28;45270;-63
2023/06/22 09:19:18;;;;;;;;;28.00;27.25;;;;;21.99;53.96;100964.25;5035580;28;45252;-63
2023/06/22 09:21:43;;;;;;;;;31.75;28.50;;;;;22.00;53.89;100961.50;5020017;28;45395;-64
2023/06/22 09:24:09;;;;;;;;;28.25;25.50;;;;;22.00;54.67;100964.16;5019630;28;45313;-63
2023/06/22 09:26:34;;;;;;;;;24.25;23.75;;;;;22.01;54.34;100963.22;5018709;28;45420;-63
2023/06/22 09:28:59;;;;;;;;;27.25;26.00;;;;;22.04;54.65;100968.38;5020211;28;45312;-63
2023/06/22 09:31:25;;;;;;;;;29.00;25.00;;;;;22.05;54.36;100967.44;5018582;28;48458;-63
2023/06/22 09:33:53;;;;;;;;;27.00;24.75;;;;;22.07;54.32;100975.34;5020031;28;45308;-63
2023/06/22 09:36:18;;;;;;;;;29.75;25.75;;;;;22.12;54.63;100978.63;5019958;28;45569;-63
2023/06/22 09:38:43;;;;;;;;;25.50;24.25;;;;;22.13;54.59;100984.84;5020029;28;45455;-63
2023/06/22 09:41:09;;;;;;;;;27.00;24.00;;;;;22.16;54.35;100996.25;5019501;28;54105;-63
2023/06/22 09:43:36;;;;;;;;;24.50;24.50;;;;;22.18;54.75;100997.00;5019660;28;52040;-63
2023/06/22 09:46:02;;;;;;;;;22.75;20.25;;;;;22.23;54.28;100999.41;5019987;28;45337;-63
2023/06/22 09:48:28;;;;;;;;;26.00;23.25;;;;;22.24;55.00;100996.63;5019701;28;45553;-63
2023/06/22 09:50:53;;;;;;;;;27.25;26.00;;;;;22.28;54.63;101002.66;5019571;28;47181;-64
2023/06/22 09:53:19;;;;;;;;;24.50;23.25;;;;;22.31;54.59;101007.81;5019901;28;45458;-63
2023/06/22 09:55:44;;;;;;;;;23.00;22.00;;;;;22.32;54.82;101004.19;5019832;28;45798;-63
2023/06/22 09:58:10;;;;;;;;;26.50;24.75;;;;;22.37;54.42;101014.69;5019714;28;45698;-63
2023/06/22 10:00:35;;;;;;;;;21.75;20.50;;;;;22.36;54.59;101010.25;5019369;28;45633;-63
2023/06/22 10:03:00;;;;;;;;;22.25;21.50;;;;;22.40;54.47;101011.81;5019559;28;45238;-63
2023/06/22 10:05:26;;;;;;;;;21.75;21.00;;;;;22.41;54.62;100989.44;5019765;28;45312;-63
2023/06/22 10:07:51;;;;;;;;;23.25;19.75;;;;;22.46;54.58;101006.09;5018424;28;45613;-63
2023/06/22 10:10:16;;;;;;;;;25.00;23.50;;;;;22.49;54.94;101005.03;5019239;28;50105;-63
2023/06/22 10:12:54;;;;;;;;;24.50;20.50;;;;;22.52;54.75;101016.44;5019681;28;45282;-63
2023/06/22 10:15:19;;;;;;;;;24.50;20.50;;;;;22.56;54.89;101014.44;5019556;28;45261;-63
2023/06/22 10:17:44;;;;;;;;;23.75;20.00;;;;;22.60;54.99;101015.09;5019099;28;45463;-63
2023/06/22 10:20:13;;;;;;;;;23.75;18.75;;;;;22.66;55.18;101020.09;5019223;28;46368;-63
2023/06/22 10:22:43;;;;;;;;;26.25;20.75;;;;;22.69;54.64;101017.22;5019431;28;45272;-63
2023/06/22 10:25:10;;;;;;;;;18.50;18.50;;;;;22.77;55.16;101022.13;5034491;28;45487;-63
2023/06/22 10:27:35;;;;;;;;;19.25;17.50;;;;;22.84;54.79;101026.13;5019346;28;45454;-63
2023/06/22 10:30:01;;;;;;;;;20.25;18.25;;;;;22.89;54.93;101032.06;5017778;28;47098;-62
2023/06/22 10:32:28;;;;;;;;;21.75;17.00;;;;;22.92;54.78;101023.84;5019333;28;45198;-63
2023/06/22 10:34:53;;;;;;;;;18.00;17.25;;;;;23.00;54.82;101028.75;5019000;28;45179;-63
2023/06/22 10:37:19;;;;;;;;;18.50;16.75;;;;;23.07;55.12;101027.41;5022477;28;45222;-63
2023/06/22 10:39:44;;;;;;;;;20.50;19.75;;;;;23.10;55.17;101026.34;5022346;28;47376;-63
2023/06/22 10:42:09;;;;;;;;;21.25;20.75;;;;;23.18;54.90;101024.94;5021517;28;45330;-63
2023/06/22 10:44:35;;;;;;;;;18.25;18.00;;;;;23.25;54.84;101032.59;5022694;28;45379;-63
2023/06/22 10:47:00;;;;;;;;;20.25;19.25;;;;;23.31;54.64;101041.13;5021399;28;45428;-63
2023/06/22 10:49:25;;;;;;;;;17.75;17.50;;;;;23.37;54.88;101051.44;5022162;28;46166;-63
2023/06/22 10:51:51;;;;;;;;;21.75;19.00;;;;;23.44;54.88;101048.38;5037879;28;45320;-63
2023/06/22 10:54:18;;;;;;;;;20.50;18.25;;;;;23.50;54.79;101058.72;5022562;28;45308;-63
2023/06/22 10:56:43;;;;;;;;;16.25;15.00;;;;;23.58;54.65;101060.91;5022423;28;45371;-63
2023/06/22 10:59:08;;;;;;;;;15.50;15.50;;;;;23.64;54.98;101072.09;5037562;28;45418;-63
2023/06/22 11:01:34;;;;;;;;;16.00;15.50;;;;;23.69;54.75;101071.81;5022291;28;45307;-64
2023/06/22 11:03:59;;;;;;;;;13.50;12.75;;;;;23.80;54.71;101068.44;5019419;28;45267;-63
2023/06/22 11:06:24;;;;;;;;;12.50;12.50;;;;;23.84;54.63;101073.47;5022446;28;45418;-64
2023/06/22 11:08:50;;;;;;;;;14.00;12.25;;;;;23.88;54.56;101071.47;5021753;28;45498;-63
2023/06/22 11:11:17;;;;;;;;;15.00;13.75;;;;;23.99;54.44;101076.19;5020883;28;45489;-64
2023/06/22 11:13:43;;;;;;;;;17.75;16.00;;;;;24.05;54.41;101080.25;5022447;28;45227;-64